Time;durP1;ratioP1;P1;durP2;ratioP2;P2;SDS_P1;SDS_P2;PMS_P1;PMS_P2;Temp;Humidity;BMP_temperature;BMP_pressure;BME280_temperature;BME280_humidity;BME280_pressure;Samples;Min_cycle;Max_cycle;Signal;HPM_P1;HPM_P2
2022/01/09 00:00:03;;;;;;;5.88;2.80;;;7.70;99.90;;;;;;5081589;28;20050;-75
2022/01/09 00:02:29;;;;;;;7.78;2.80;;;7.60;99.90;;;;;;5090827;28;20045;-75
2022/01/09 00:04:55;;;;;;;10.65;3.60;;;7.60;99.90;;;;;;5092999;28;20028;-73
2022/01/09 00:07:20;;;;;;;7.50;2.70;;;7.50;99.90;;;;;;5093702;28;20016;-74
2022/01/09 00:09:46;;;;;;;9.00;2.58;;;7.60;99.90;;;;;;5080483;28;20071;-75
2022/01/09 00:12:12;;;;;;;5.68;2.42;;;7.60;99.90;;;;;;5086369;28;20028;-74
2022/01/09 00:14:38;;;;;;;8.43;3.10;;;7.60;99.90;;;;;;5093945;28;20024;-74
2022/01/09 00:17:04;;;;;;;5.72;2.10;;;7.60;99.90;;;;;;5083673;28;20025;-74
2022/01/09 00:19:29;;;;;;;7.70;2.35;;;7.60;99.90;;;;;;5088500;28;20027;-74
2022/01/09 00:21:55;;;;;;;5.82;2.25;;;7.60;99.90;;;;;;5081994;28;20028;-74
2022/01/09 00:24:21;;;;;;;6.43;2.70;;;7.60;99.90;;;;;;5077796;28;20032;-74
2022/01/09 00:26:46;;;;;;;5.45;2.42;;;7.60;99.90;;;;;;5086565;28;20586;-74
2022/01/09 00:29:12;;;;;;;7.82;2.60;;;7.70;99.90;;;;;;5085285;28;20044;-74
2022/01/09 00:31:38;;;;;;;5.20;2.53;;;7.60;99.90;;;;;;5084752;28;20043;-74
2022/01/09 00:34:04;;;;;;;6.95;2.63;;;7.70;99.90;;;;;;5084156;28;20016;-75
2022/01/09 00:36:30;;;;;;;4.10;1.92;;;7.60;99.90;;;;;;5093146;28;20060;-75
2022/01/09 00:38:57;;;;;;;8.15;2.85;;;7.60;99.90;;;;;;5081555;28;20027;-75
2022/01/09 00:41:22;;;;;;;7.30;2.38;;;7.70;99.90;;;;;;5076958;28;20035;-75
2022/01/09 00:43:49;;;;;;;4.50;1.73;;;7.70;99.90;;;;;;5091532;28;20020;-74
2022/01/09 00:46:15;;;;;;;9.98;2.10;;;7.60;99.90;;;;;;5090827;28;20039;-74
2022/01/09 00:48:41;;;;;;;13.18;2.75;;;7.60;99.90;;;;;;5093328;28;20062;-75
2022/01/09 00:51:07;;;;;;;9.73;2.88;;;7.70;99.90;;;;;;5089968;28;20095;-74
2022/01/09 00:53:32;;;;;;;15.30;3.25;;;7.60;99.90;;;;;;5084924;28;20028;-74
2022/01/09 00:55:58;;;;;;;11.90;3.30;;;7.60;99.90;;;;;;5084985;28;20027;-75
2022/01/09 00:58:24;;;;;;;18.25;3.72;;;7.50;99.90;;;;;;5091687;28;20020;-74
2022/01/09 01:00:49;;;;;;;14.57;3.35;;;7.50;99.90;;;;;;5090107;28;20107;-74
2022/01/09 01:03:15;;;;;;;11.95;2.65;;;7.40;99.90;;;;;;5085787;28;20029;-74
2022/01/09 01:05:41;;;;;;;21.70;3.15;;;7.30;99.90;;;;;;5092375;28;20032;-74
2022/01/09 01:08:07;;;;;;;16.48;3.60;;;7.30;99.90;;;;;;5087013;28;20441;-74
2022/01/09 01:10:32;;;;;;;13.20;2.72;;;7.30;99.90;;;;;;5084888;28;20046;-75
2022/01/09 01:12:59;;;;;;;23.05;3.47;;;7.30;99.90;;;;;;5091640;28;20039;-73
2022/01/09 01:15:25;;;;;;;18.88;3.20;;;7.40;99.90;;;;;;5086242;28;20027;-74
2022/01/09 01:17:50;;;;;;;34.10;4.22;;;7.30;99.90;;;;;;5082626;28;20520;-74
2022/01/09 01:20:22;;;;;;;25.02;4.38;;;7.20;99.90;;;;;;5081980;28;20095;-74
2022/01/09 01:22:50;;;;;;;25.40;5.03;;;7.30;99.90;;;;;;5086071;28;20027;-74
2022/01/09 01:25:21;;;;;;;25.60;4.50;;;7.30;99.90;;;;;;5087216;28;20028;-74
2022/01/09 01:27:47;;;;;;;23.73;4.60;;;7.30;99.90;;;;;;5092630;28;20074;-74
2022/01/09 01:30:13;;;;;;;24.92;4.65;;;7.30;99.90;;;;;;5091144;28;20074;-74
2022/01/09 01:32:40;;;;;;;32.45;5.57;;;7.30;99.90;;;;;;5091628;28;20364;-74
2022/01/09 01:35:06;;;;;;;27.88;4.93;;;7.30;99.90;;;;;;5091606;28;20024;-75
2022/01/09 01:37:32;;;;;;;40.50;5.72;;;7.30;99.90;;;;;;5091557;28;20009;-74
2022/01/09 01:39:58;;;;;;;41.95;5.65;;;7.30;99.90;;;;;;5079685;28;20035;-74
2022/01/09 01:42:24;;;;;;;28.60;4.80;;;7.30;99.90;;;;;;5091758;28;20036;-75
2022/01/09 01:44:50;;;;;;;34.38;5.75;;;7.30;99.90;;;;;;5091045;28;20051;-75
2022/01/09 01:47:19;;;;;;;33.72;5.53;;;7.30;99.90;;;;;;5091157;28;20619;-77
2022/01/09 01:49:45;;;;;;;27.95;5.28;;;7.30;99.90;;;;;;5091699;28;20111;-74
2022/01/09 01:52:13;;;;;;;31.40;5.50;;;7.30;99.90;;;;;;5089709;28;20039;-74
2022/01/09 01:54:41;;;;;;;30.45;6.10;;;7.30;99.90;;;;;;5091951;28;20046;-76
2022/01/09 01:57:07;;;;;;;38.42;6.75;;;7.30;99.90;;;;;;5091600;28;20058;-75
2022/01/09 01:59:33;;;;;;;32.17;5.03;;;7.30;99.90;;;;;;5091709;28;20052;-76
2022/01/09 02:01:58;;;;;;;33.33;6.30;;;7.30;99.90;;;;;;5092290;28;20016;-76
2022/01/09 02:04:24;;;;;;;31.98;6.63;;;7.40;99.90;;;;;;5091959;28;20028;-76
2022/01/09 02:06:50;;;;;;;35.67;6.50;;;7.40;99.90;;;;;;5070522;28;20025;-75
2022/01/09 02:09:16;;;;;;;38.58;6.10;;;7.40;99.90;;;;;;5089848;28;20127;-75
2022/01/09 02:11:43;;;;;;;40.92;6.45;;;7.40;99.90;;;;;;5087100;28;20016;-76
2022/01/09 02:14:09;;;;;;;40.35;7.45;;;7.50;99.90;;;;;;5084281;28;20397;-76
2022/01/09 02:16:41;;;;;;;49.40;7.43;;;7.50;99.90;;;;;;5085001;28;20021;-75
2022/01/09 02:19:08;;;;;;;48.70;8.60;;;7.40;99.90;;;;;;5091163;28;20024;-74
2022/01/09 02:21:34;;;;;;;49.42;7.75;;;7.50;99.90;;;;;;5092097;28;20088;-75
2022/01/09 02:24:00;;;;;;;52.45;8.55;;;7.40;99.90;;;;;;5091828;28;20524;-75
2022/01/09 02:26:26;;;;;;;48.90;8.90;;;7.40;99.90;;;;;;5091921;28;20028;-75
2022/01/09 02:28:52;;;;;;;50.20;8.65;;;7.40;99.90;;;;;;5083952;28;20028;-75
2022/01/09 02:31:19;;;;;;;47.63;8.10;;;7.40;99.90;;;;;;5090855;28;20012;-74
2022/01/09 02:33:45;;;;;;;34.40;6.18;;;7.40;99.90;;;;;;5090124;28;20389;-75
2022/01/09 02:36:11;;;;;;;46.40;7.57;;;7.30;99.90;;;;;;5092033;28;20012;-75
2022/01/09 02:38:37;;;;;;;46.17;8.30;;;7.40;99.90;;;;;;5089514;28;20020;-75
2022/01/09 02:41:03;;;;;;;48.85;8.15;;;7.40;99.90;;;;;;5084914;28;20028;-74
2022/01/09 02:43:30;;;;;;;44.50;7.13;;;7.40;99.90;;;;;;5082414;28;20373;-75
2022/01/09 02:46:16;;;;;;;36.83;7.53;;;7.30;99.90;;;;;;5081671;28;20032;-75
2022/01/09 02:48:44;;;;;;;40.58;7.35;;;7.30;99.90;;;;;;5091203;28;20035;-75
2022/01/09 02:51:14;;;;;;;41.38;7.57;;;7.40;99.90;;;;;;5095250;28;20035;-75
2022/01/09 02:53:41;;;;;;;29.48;6.38;;;7.40;99.90;;;;;;5082574;28;20024;-75
2022/01/09 02:56:08;;;;;;;32.42;5.60;;;7.40;99.90;;;;;;5094813;28;20486;-74
2022/01/09 02:58:34;;;;;;;37.17;6.72;;;7.40;99.90;;;;;;5089308;28;20073;-75
2022/01/09 03:01:00;;;;;;;33.60;5.20;;;7.40;99.90;;;;;;5084849;28;20063;-76
2022/01/09 03:03:26;;;;;;;37.85;6.32;;;7.40;99.90;;;;;;5081042;28;20384;-75
2022/01/09 03:05:52;;;;;;;46.38;5.70;;;7.40;99.90;;;;;;5084932;28;20034;-76
2022/01/09 03:08:18;;;;;;;28.27;4.72;;;7.40;99.90;;;;;;5083491;28;20050;-76
2022/01/09 03:10:44;;;;;;;34.22;5.93;;;7.30;99.90;;;;;;5082388;28;20380;-76
2022/01/09 03:13:10;;;;;;;29.42;6.57;;;7.30;99.90;;;;;;5083815;28;20032;-76
2022/01/09 03:15:36;;;;;;;29.38;4.95;;;7.20;99.90;;;;;;5084378;28;20503;-77
2022/01/09 03:18:02;;;;;;;36.05;5.53;;;7.20;99.90;;;;;;5085237;28;20103;-76
2022/01/09 03:20:28;;;;;;;30.52;5.53;;;7.30;99.90;;;;;;5083576;28;20029;-76
2022/01/09 03:22:55;;;;;;;23.85;5.18;;;7.30;99.90;;;;;;5084231;28;20388;-76
2022/01/09 03:25:22;;;;;;;30.27;5.32;;;7.20;99.90;;;;;;5085082;28;20025;-76
2022/01/09 03:27:50;;;;;;;28.25;4.90;;;7.20;99.90;;;;;;5082827;28;20027;-76
2022/01/09 03:30:18;;;;;;;36.83;5.25;;;7.20;99.90;;;;;;5083896;28;20476;-76
2022/01/09 03:32:45;;;;;;;35.03;5.07;;;7.20;99.90;;;;;;5085023;28;20472;-75
2022/01/09 03:35:17;;;;;;;30.48;4.75;;;7.20;99.90;;;;;;5084604;28;20020;-76
2022/01/09 03:37:44;;;;;;;44.35;5.35;;;7.20;99.90;;;;;;5083161;28;20028;-76
2022/01/09 03:40:13;;;;;;;24.92;4.30;;;7.20;99.90;;;;;;5082313;28;20476;-76
2022/01/09 03:42:39;;;;;;;25.63;4.43;;;7.20;99.90;;;;;;5082990;28;20518;-76
2022/01/09 03:45:07;;;;;;;20.40;4.30;;;7.20;99.90;;;;;;5082852;28;20034;-76
2022/01/09 03:47:35;;;;;;;21.92;3.95;;;7.20;99.90;;;;;;5084069;28;20059;-76
2022/01/09 03:50:02;;;;;;;23.50;3.85;;;7.20;99.90;;;;;;5082816;28;20016;-76
2022/01/09 03:52:28;;;;;;;25.48;5.32;;;7.20;99.90;;;;;;5084772;28;20019;-75
2022/01/09 03:54:55;;;;;;;29.63;5.35;;;7.20;99.90;;;;;;5084283;28;20049;-75
2022/01/09 03:57:21;;;;;;;25.75;3.75;;;7.20;99.90;;;;;;5082244;28;20134;-75
2022/01/09 03:59:47;;;;;;;30.77;5.25;;;7.20;99.90;;;;;;5082892;28;20453;-76
2022/01/09 04:02:13;;;;;;;25.98;3.92;;;7.20;99.90;;;;;;5082660;28;20028;-75
2022/01/09 04:04:39;;;;;;;18.05;3.85;;;7.30;99.90;;;;;;5082669;28;20029;-76
2022/01/09 04:07:05;;;;;;;26.95;3.90;;;7.30;99.90;;;;;;5083048;28;20373;-77
2022/01/09 04:09:40;;;;;;;25.77;4.18;;;7.30;99.90;;;;;;5083208;28;20487;-77
2022/01/09 04:12:16;;;;;;;30.38;4.15;;;7.20;99.90;;;;;;5083129;28;20024;-75
2022/01/09 04:14:44;;;;;;;22.02;3.95;;;7.20;99.90;;;;;;5082506;28;20074;-75
2022/01/09 04:17:16;;;;;;;21.55;4.05;;;7.10;99.90;;;;;;5082812;28;20027;-76
2022/01/09 04:19:42;;;;;;;20.23;4.10;;;7.10;99.90;;;;;;5083905;28;20035;-75
2022/01/09 04:22:08;;;;;;;17.85;3.85;;;7.10;99.90;;;;;;5082935;28;20020;-75
2022/01/09 04:24:33;;;;;;;17.55;3.63;;;7.10;99.90;;;;;;5081082;28;20024;-75
2022/01/09 04:26:59;;;;;;;20.42;3.88;;;7.00;99.90;;;;;;5082564;28;20043;-76
2022/01/09 04:29:25;;;;;;;26.73;4.07;;;7.00;99.90;;;;;;5082461;28;20029;-76
2022/01/09 04:31:50;;;;;;;25.85;4.00;;;7.00;99.90;;;;;;5082703;28;20376;-76
2022/01/09 04:34:16;;;;;;;21.45;4.35;;;7.00;99.90;;;;;;5082511;28;20032;-75
2022/01/09 04:36:42;;;;;;;28.77;4.03;;;7.10;99.90;;;;;;5082367;28;20516;-75
2022/01/09 04:39:07;;;;;;;18.90;3.00;;;7.00;99.90;;;;;;5082583;28;20028;-75
2022/01/09 04:41:33;;;;;;;25.52;3.88;;;7.00;99.90;;;;;;5083017;28;20470;-76
2022/01/09 04:43:59;;;;;;;21.92;2.47;;;7.00;99.90;;;;;;5084652;28;20476;-76
2022/01/09 04:46:27;;;;;;;24.02;3.90;;;6.90;99.90;;;;;;5092649;28;20051;-76
2022/01/09 04:48:55;;;;;;;25.92;3.55;;;7.00;99.90;;;;;;5093938;28;20039;-76
2022/01/09 04:51:21;;;;;;;19.42;4.10;;;7.00;99.90;;;;;;5081418;28;20024;-76
2022/01/09 04:53:46;;;;;;;16.20;3.70;;;7.00;99.90;;;;;;5073945;28;20063;-76
2022/01/09 04:56:12;;;;;;;19.65;3.50;;;7.10;99.90;;;;;;5082032;28;20056;-75
2022/01/09 04:58:38;;;;;;;20.85;3.42;;;7.00;99.90;;;;;;5093401;28;20047;-76
2022/01/09 05:01:03;;;;;;;22.25;4.32;;;7.10;99.90;;;;;;5081605;28;20027;-76
2022/01/09 05:03:29;;;;;;;16.98;4.18;;;7.00;99.90;;;;;;5073472;28;20028;-77
2022/01/09 05:05:55;;;;;;;21.05;3.67;;;7.00;99.90;;;;;;5073090;28;20029;-76
2022/01/09 05:08:20;;;;;;;15.38;3.85;;;7.00;99.90;;;;;;5091412;28;20096;-76
2022/01/09 05:10:46;;;;;;;16.30;3.90;;;7.00;99.90;;;;;;5092175;28;20031;-76
2022/01/09 05:13:13;;;;;;;21.73;4.38;;;6.90;99.90;;;;;;5093270;28;20097;-76
2022/01/09 05:15:38;;;;;;;18.85;4.00;;;7.00;99.90;;;;;;5092552;28;20016;-76
2022/01/09 05:18:11;;;;;;;21.52;3.90;;;7.00;99.90;;;;;;5093045;28;20024;-76
2022/01/09 05:20:37;;;;;;;25.95;4.72;;;7.00;99.90;;;;;;5086178;28;20028;-76
2022/01/09 05:23:03;;;;;;;25.88;4.22;;;6.90;99.90;;;;;;5073615;28;20020;-76
2022/01/09 05:25:29;;;;;;;22.75;4.53;;;6.90;99.90;;;;;;5073038;28;20112;-76
2022/01/09 05:27:54;;;;;;;16.95;3.60;;;7.00;99.90;;;;;;5072144;28;20109;-76
2022/01/09 05:30:20;;;;;;;19.77;4.55;;;7.00;99.90;;;;;;5073165;28;20457;-76
2022/01/09 05:32:46;;;;;;;19.13;3.78;;;7.00;99.90;;;;;;5090127;28;20028;-77
2022/01/09 05:35:11;;;;;;;19.65;3.85;;;7.00;99.90;;;;;;5093278;28;20043;-75
2022/01/09 05:37:37;;;;;;;17.65;3.53;;;7.00;99.90;;;;;;5093249;28;20590;-76
2022/01/09 05:40:03;;;;;;;17.50;3.85;;;6.90;99.90;;;;;;5093518;28;20024;-76
2022/01/09 05:42:29;;;;;;;23.98;3.50;;;7.00;99.90;;;;;;5086190;28;20464;-75
2022/01/09 05:44:54;;;;;;;22.17;3.88;;;6.90;99.90;;;;;;5081137;28;20095;-76
2022/01/09 05:47:20;;;;;;;22.20;3.47;;;7.00;99.90;;;;;;5086176;28;20058;-75
2022/01/09 05:49:46;;;;;;;20.95;3.50;;;6.90;99.90;;;;;;5107635;28;20036;-76
2022/01/09 05:52:12;;;;;;;20.65;3.85;;;6.90;99.90;;;;;;5074969;28;20024;-76
2022/01/09 05:54:37;;;;;;;16.88;3.92;;;6.90;99.90;;;;;;5072311;28;20029;-77
2022/01/09 05:57:04;;;;;;;21.48;3.22;;;6.90;99.90;;;;;;5087417;28;20495;-78
2022/01/09 05:59:29;;;;;;;23.63;3.72;;;6.90;99.90;;;;;;5092324;28;20541;-77
2022/01/09 06:01:56;;;;;;;15.10;3.83;;;7.00;99.90;;;;;;5085428;28;20017;-78
2022/01/09 06:04:23;;;;;;;19.25;3.80;;;6.90;99.90;;;;;;5072403;28;20016;-77
2022/01/09 06:06:49;;;;;;;16.95;3.60;;;6.90;99.90;;;;;;5072731;28;20073;-77
2022/01/09 06:09:15;;;;;;;17.23;3.67;;;6.90;99.90;;;;;;5072730;28;20059;-77
2022/01/09 06:11:41;;;;;;;19.10;3.58;;;6.70;99.90;;;;;;5072839;28;20055;-77
2022/01/09 06:14:07;;;;;;;20.63;3.88;;;6.80;99.90;;;;;;5072940;28;20047;-77
2022/01/09 06:16:32;;;;;;;16.73;3.35;;;6.80;99.90;;;;;;5072851;28;20067;-78
2022/01/09 06:18:58;;;;;;;21.85;3.63;;;6.80;99.90;;;;;;5072578;28;20063;-77
2022/01/09 06:21:26;;;;;;;24.55;3.90;;;6.70;99.90;;;;;;5072740;28;20024;-77
2022/01/09 06:23:52;;;;;;;13.15;2.97;;;6.80;99.90;;;;;;5072793;28;20024;-76
2022/01/09 06:26:18;;;;;;;13.57;2.88;;;6.80;99.90;;;;;;5096185;28;20462;-76
2022/01/09 06:28:44;;;;;;;9.48;2.45;;;6.80;99.90;;;;;;5096450;28;20035;-76
2022/01/09 06:31:09;;;;;;;12.60;2.90;;;6.70;99.90;;;;;;5095807;28;20024;-76
2022/01/09 06:33:35;;;;;;;13.70;3.58;;;6.70;99.90;;;;;;5076112;28;20502;-76
2022/01/09 06:36:00;;;;;;;14.85;3.13;;;6.70;99.90;;;;;;5075734;28;20453;-76
2022/01/09 06:38:26;;;;;;;19.67;3.75;;;6.70;99.90;;;;;;5076124;28;20115;-76
2022/01/09 06:40:52;;;;;;;19.50;3.80;;;6.70;99.90;;;;;;5077572;28;20021;-76
2022/01/09 06:43:18;;;;;;;17.15;3.60;;;6.70;99.90;;;;;;5077471;28;20029;-76
2022/01/09 06:45:43;;;;;;;15.75;3.67;;;6.80;99.90;;;;;;5076726;28;20032;-76
2022/01/09 06:48:09;;;;;;;18.77;4.47;;;6.90;99.90;;;;;;5088032;28;20075;-76
2022/01/09 06:50:35;;;;;;;16.20;3.28;;;6.90;99.90;;;;;;5096281;28;20035;-76
2022/01/09 06:53:01;;;;;;;12.07;3.17;;;6.90;99.90;;;;;;5095938;28;20028;-76
2022/01/09 06:55:27;;;;;;;22.02;3.65;;;6.80;99.90;;;;;;5096403;28;20030;-76
2022/01/09 06:57:54;;;;;;;18.92;3.03;;;6.80;99.90;;;;;;5095188;28;20051;-76
2022/01/09 07:00:21;;;;;;;19.00;3.25;;;6.80;99.90;;;;;;5096419;28;20028;-76
2022/01/09 07:02:48;;;;;;;19.40;3.35;;;6.90;99.90;;;;;;5084509;28;20103;-76
2022/01/09 07:05:14;;;;;;;20.85;3.35;;;6.80;99.90;;;;;;5096094;28;20047;-76
2022/01/09 07:07:40;;;;;;;16.27;3.45;;;6.80;99.90;;;;;;5095911;28;20036;-76
2022/01/09 07:10:07;;;;;;;22.90;3.47;;;6.90;99.90;;;;;;5096224;28;20032;-76
2022/01/09 07:12:32;;;;;;;12.52;3.92;;;6.80;99.90;;;;;;5094767;28;20500;-76
2022/01/09 07:14:58;;;;;;;18.83;4.10;;;6.80;99.90;;;;;;5096107;28;20024;-76
2022/01/09 07:17:24;;;;;;;17.15;4.40;;;6.70;99.90;;;;;;5095416;28;20094;-76
2022/01/09 07:19:49;;;;;;;19.40;4.18;;;6.70;99.90;;;;;;5095825;28;20054;-76
2022/01/09 07:22:15;;;;;;;20.98;3.90;;;6.70;99.90;;;;;;5095934;28;20376;-77
2022/01/09 07:24:40;;;;;;;20.70;3.92;;;6.60;99.90;;;;;;5095587;28;20024;-76
2022/01/09 07:27:06;;;;;;;24.77;3.75;;;6.70;99.90;;;;;;5095175;28;20039;-76
2022/01/09 07:29:32;;;;;;;24.08;4.43;;;6.70;99.90;;;;;;5095418;28;20426;-77
2022/01/09 07:31:58;;;;;;;24.38;3.80;;;6.70;99.90;;;;;;5089394;28;20024;-75
2022/01/09 07:34:23;;;;;;;19.02;3.15;;;6.70;99.90;;;;;;5095038;28;20035;-76
2022/01/09 07:36:49;;;;;;;17.63;4.07;;;6.60;99.90;;;;;;5095181;28;20150;-76
2022/01/09 07:39:15;;;;;;;26.25;4.03;;;6.70;99.90;;;;;;5094222;28;20020;-76
2022/01/09 07:41:42;;;;;;;21.20;4.50;;;6.70;99.90;;;;;;5084814;28;20028;-74
2022/01/09 07:44:08;;;;;;;24.77;4.43;;;6.60;99.90;;;;;;5075336;28;20029;-75
2022/01/09 07:46:34;;;;;;;18.98;3.70;;;6.60;99.90;;;;;;5075074;28;20600;-76
2022/01/09 07:49:00;;;;;;;20.13;3.63;;;6.70;99.90;;;;;;5074808;28;20043;-76
2022/01/09 07:51:26;;;;;;;24.38;4.07;;;6.60;99.90;;;;;;5074327;28;20373;-75
2022/01/09 07:53:51;;;;;;;19.75;3.80;;;6.50;99.90;;;;;;5073677;28;20473;-75
2022/01/09 07:56:17;;;;;;;12.85;3.17;;;6.40;99.90;;;;;;5092830;28;20038;-75
2022/01/09 07:58:45;;;;;;;20.45;3.75;;;6.40;99.90;;;;;;5094747;28;20050;-75
2022/01/09 08:01:11;;;;;;;15.82;3.55;;;6.50;99.90;;;;;;5085423;28;20477;-76
2022/01/09 08:03:37;;;;;;;14.10;3.72;;;6.50;99.90;;;;;;5089626;28;20028;-75
2022/01/09 08:06:03;;;;;;;14.52;3.50;;;6.50;99.90;;;;;;5094748;28;20032;-75
2022/01/09 08:08:29;;;;;;;16.23;3.58;;;6.50;99.90;;;;;;5093694;28;20039;-76
2022/01/09 08:10:55;;;;;;;14.60;3.35;;;6.50;99.90;;;;;;5094713;28;20388;-74
2022/01/09 08:13:20;;;;;;;17.13;3.75;;;6.40;99.90;;;;;;5095053;28;20028;-76
2022/01/09 08:15:48;;;;;;;18.83;3.05;;;6.40;99.90;;;;;;5094332;28;20694;-76
2022/01/09 08:18:13;;;;;;;14.27;3.80;;;6.40;99.90;;;;;;5094547;28;20476;-77
2022/01/09 08:20:39;;;;;;;16.48;3.17;;;6.40;99.90;;;;;;5094361;28;20027;-77
2022/01/09 08:23:05;;;;;;;17.13;4.47;;;6.40;99.90;;;;;;5094944;28;20020;-76
2022/01/09 08:25:31;;;;;;;15.13;3.40;;;6.50;99.90;;;;;;5089909;28;20427;-76
2022/01/09 08:27:57;;;;;;;15.20;3.47;;;6.60;99.90;;;;;;5093836;28;20078;-75
2022/01/09 08:30:24;;;;;;;13.43;4.13;;;6.50;99.90;;;;;;5094335;28;20032;-72
2022/01/09 08:32:52;;;;;;;23.23;4.68;;;6.70;99.90;;;;;;5085870;28;20024;-77
2022/01/09 08:35:19;;;;;;;15.00;4.38;;;6.70;99.90;;;;;;5094398;28;20028;-76
2022/01/09 08:37:45;;;;;;;21.95;5.57;;;6.70;99.90;;;;;;5088858;28;20047;-77
2022/01/09 08:40:13;;;;;;;18.52;5.57;;;6.70;99.90;;;;;;5094251;28;20070;-78
2022/01/09 08:42:40;;;;;;;15.93;4.60;;;6.70;99.90;;;;;;5093798;28;20066;-76
2022/01/09 08:45:07;;;;;;;23.45;4.63;;;6.60;99.90;;;;;;5093823;28;20051;-77
2022/01/09 08:47:38;;;;;;;26.17;5.43;;;6.60;99.90;;;;;;5093232;28;20491;-76
2022/01/09 08:50:06;;;;;;;18.23;5.32;;;6.60;99.90;;;;;;5094121;28;20030;-77
2022/01/09 08:52:32;;;;;;;27.77;5.18;;;6.50;99.90;;;;;;5084310;28;20025;-77
2022/01/09 08:54:58;;;;;;;19.92;4.43;;;6.50;99.90;;;;;;5075444;28;20365;-76
2022/01/09 08:57:25;;;;;;;22.63;4.70;;;6.50;99.90;;;;;;5092223;28;20080;-77
2022/01/09 08:59:54;;;;;;;16.98;4.45;;;6.40;99.90;;;;;;5093065;28;20480;-76
2022/01/09 09:02:19;;;;;;;15.98;3.67;;;6.40;99.90;;;;;;5092091;28;20020;-76
2022/01/09 09:04:45;;;;;;;15.60;3.70;;;6.50;99.90;;;;;;5083134;28;20234;-76
2022/01/09 09:07:11;;;;;;;22.30;6.45;;;6.50;99.90;;;;;;5072702;28;20025;-76
2022/01/09 09:09:37;;;;;;;20.55;5.85;;;6.40;99.90;;;;;;5086531;28;20044;-76
2022/01/09 09:12:04;;;;;;;13.95;4.80;;;6.50;99.90;;;;;;5093095;28;20026;-76
2022/01/09 09:14:30;;;;;;;24.40;6.18;;;6.40;99.90;;;;;;5093468;28;20050;-77
2022/01/09 09:16:56;;;;;;;20.95;5.72;;;6.40;99.90;;;;;;5093560;28;20024;-76
2022/01/09 09:19:21;;;;;;;15.70;6.05;;;6.40;99.90;;;;;;5093759;28;20024;-76
2022/01/09 09:21:47;;;;;;;21.05;6.30;;;6.40;99.90;;;;;;5092321;28;20534;-75
2022/01/09 09:24:13;;;;;;;15.20;5.72;;;6.50;99.90;;;;;;5092052;28;20020;-76
2022/01/09 09:26:39;;;;;;;16.95;6.60;;;6.50;99.90;;;;;;5092723;28;20073;-77
2022/01/09 09:29:05;;;;;;;19.45;7.50;;;6.50;99.90;;;;;;5092290;28;20113;-77
2022/01/09 09:31:32;;;;;;;26.20;7.68;;;6.50;99.90;;;;;;5092926;28;20468;-75
2022/01/09 09:33:57;;;;;;;19.02;7.97;;;6.40;99.90;;;;;;5076488;28;20115;-76
2022/01/09 09:36:24;;;;;;;26.95;9.23;;;6.60;99.90;;;;;;5073154;28;20460;-75
2022/01/09 09:38:50;;;;;;;23.27;8.25;;;6.60;99.90;;;;;;5072903;28;20119;-74
2022/01/09 09:41:16;;;;;;;24.17;8.00;;;6.60;99.90;;;;;;5081890;28;20055;-79
2022/01/09 09:43:41;;;;;;;17.77;9.77;;;6.50;99.90;;;;;;5078839;28;20066;-77
2022/01/09 09:46:07;;;;;;;17.20;6.80;;;6.50;99.90;;;;;;5072233;28;20029;-75
2022/01/09 09:48:33;;;;;;;19.05;6.93;;;6.50;99.90;;;;;;5072009;28;20097;-76
2022/01/09 09:50:59;;;;;;;17.30;6.97;;;6.50;99.90;;;;;;5072535;28;20032;-75
2022/01/09 09:53:24;;;;;;;17.70;8.35;;;6.60;99.90;;;;;;5072168;28;20028;-78
2022/01/09 09:55:53;;;;;;;20.38;7.93;;;6.50;99.90;;;;;;5077652;28;20016;-77
2022/01/09 09:58:19;;;;;;;15.00;7.10;;;6.60;99.90;;;;;;5091736;28;20020;-76
2022/01/09 10:00:56;;;;;;;12.88;6.30;;;6.70;99.90;;;;;;5075862;28;20029;-77
2022/01/09 10:03:30;;;;;;;19.88;6.32;;;6.70;99.90;;;;;;5079620;28;20081;-75
2022/01/09 10:05:56;;;;;;;18.60;6.95;;;6.80;99.90;;;;;;5084982;28;20024;-76
2022/01/09 10:08:37;;;;;;;23.13;6.97;;;6.80;99.90;;;;;;5074497;28;20036;-76
2022/01/09 10:11:17;;;;;;;18.63;7.25;;;6.70;99.90;;;;;;5075287;28;20043;-76
2022/01/09 10:13:44;;;;;;;17.15;6.80;;;6.70;99.90;;;;;;5090571;28;20024;-76
2022/01/09 10:16:11;;;;;;;21.05;8.20;;;6.70;99.90;;;;;;5091901;28;20031;-76
2022/01/09 10:18:42;;;;;;;24.58;6.95;;;6.70;99.90;;;;;;5092250;28;20052;-76
2022/01/09 10:21:14;;;;;;;20.10;9.07;;;6.70;99.90;;;;;;5092051;28;20166;-76
2022/01/09 10:23:59;;;;;;;19.23;7.35;;;6.70;99.90;;;;;;5090398;28;20483;-76
2022/01/09 10:26:25;;;;;;;27.33;8.63;;;6.70;99.90;;;;;;5091953;28;20023;-77
2022/01/09 10:28:51;;;;;;;23.95;8.63;;;6.90;99.90;;;;;;5083539;28;20041;-75
2022/01/09 10:31:18;;;;;;;22.30;6.43;;;6.90;99.90;;;;;;5091864;28;20388;-76
2022/01/09 10:34:06;;;;;;;22.15;6.13;;;6.90;99.90;;;;;;5074366;28;20532;-77
2022/01/09 10:36:41;;;;;;;15.93;6.03;;;6.80;99.90;;;;;;5072438;28;20484;-77
2022/01/09 10:39:10;;;;;;;19.10;6.10;;;6.90;99.90;;;;;;5080342;28;20527;-76
2022/01/09 10:41:56;;;;;;;14.98;5.32;;;6.80;99.90;;;;;;5079314;28;20016;-76
2022/01/09 10:44:27;;;;;;;24.15;6.03;;;6.80;99.90;;;;;;5092064;28;20036;-77
2022/01/09 10:47:12;;;;;;;22.88;8.07;;;6.80;99.90;;;;;;5083936;28;20025;-77
2022/01/09 10:49:40;;;;;;;26.50;7.82;;;6.90;99.90;;;;;;5071295;28;20036;-77
2022/01/09 10:52:26;;;;;;;23.85;7.07;;;7.00;99.90;;;;;;5071543;28;20048;-76
2022/01/09 10:54:57;;;;;;;16.70;7.50;;;7.00;99.90;;;;;;5086905;28;20024;-76
2022/01/09 10:57:24;;;;;;;16.05;7.38;;;6.90;99.90;;;;;;5079563;28;20375;-77
2022/01/09 10:59:50;;;;;;;17.58;7.45;;;6.90;99.90;;;;;;5072377;28;20047;-74
2022/01/09 11:02:17;;;;;;;17.55;8.38;;;6.90;99.90;;;;;;5074690;28;20096;-75
2022/01/09 11:04:44;;;;;;;16.40;6.78;;;6.90;99.90;;;;;;5071364;28;20032;-77
2022/01/09 11:07:11;;;;;;;19.90;8.55;;;7.00;99.90;;;;;;5071318;28;20027;-77
2022/01/09 11:09:39;;;;;;;22.45;8.65;;;7.00;99.90;;;;;;5071654;28;20033;-78
2022/01/09 11:12:09;;;;;;;23.40;9.43;;;7.10;99.90;;;;;;5084599;28;20384;-78
2022/01/09 11:14:44;;;;;;;18.75;8.20;;;7.10;99.90;;;;;;5095141;28;20040;-77
2022/01/09 11:17:11;;;;;;;21.50;10.57;;;7.20;99.90;;;;;;5095680;28;20091;-77
2022/01/09 11:19:37;;;;;;;21.73;10.35;;;7.20;99.90;;;;;;5095324;28;20120;-77
2022/01/09 11:22:06;;;;;;;17.70;10.20;;;7.30;99.90;;;;;;5095229;28;20480;-76
2022/01/09 11:24:44;;;;;;;27.33;11.77;;;7.30;99.90;;;;;;5094425;28;20024;-77
2022/01/09 11:27:25;;;;;;;20.58;10.55;;;7.30;99.90;;;;;;5088618;28;20099;-78
2022/01/09 11:30:14;;;;;;;28.63;11.98;;;7.30;99.90;;;;;;5074002;28;20161;-77
2022/01/09 11:32:48;;;;;;;20.38;10.00;;;7.40;99.90;;;;;;5091011;28;20107;-79
2022/01/09 11:35:23;;;;;;;22.48;11.25;;;7.50;99.90;;;;;;5093109;28;20024;-77
2022/01/09 11:38:06;;;;;;;25.10;10.80;;;7.50;99.90;;;;;;5094931;28;20157;-76
2022/01/09 11:40:33;;;;;;;28.40;11.77;;;7.40;99.90;;;;;;5095139;28;20028;-75
2022/01/09 11:43:14;;;;;;;25.23;8.98;;;7.30;99.90;;;;;;5094419;28;20024;-75
2022/01/09 11:46:02;;;;;;;14.23;8.20;;;7.20;99.90;;;;;;5094439;28;20019;-75
2022/01/09 11:48:49;;;;;;;16.77;8.60;;;7.20;99.90;;;;;;5092898;28;20036;-76
2022/01/09 11:51:17;;;;;;;16.58;9.82;;;7.10;99.90;;;;;;5094833;28;20058;-75
2022/01/09 11:54:06;;;;;;;14.35;8.70;;;7.10;99.90;;;;;;5094659;28;20425;-75
2022/01/09 11:56:41;;;;;;;15.30;8.50;;;7.20;99.90;;;;;;5094652;28;20016;-74
2022/01/09 11:59:17;;;;;;;25.83;9.65;;;7.30;99.90;;;;;;5094015;28;20551;-74
2022/01/09 12:01:48;;;;;;;19.02;10.40;;;7.50;99.90;;;;;;5074445;28;20032;-74
2022/01/09 12:04:46;;;;;;;23.73;10.68;;;7.50;99.90;;;;;;5087448;28;20032;-74
2022/01/09 12:07:31;;;;;;;28.70;11.48;;;7.60;99.90;;;;;;5029343;28;20052;-74
2022/01/09 12:09:58;;;;;;;30.27;10.45;;;7.60;99.90;;;;;;5094274;28;20046;-75
2022/01/09 12:12:36;;;;;;;28.38;11.77;;;7.70;99.90;;;;;;5092100;28;20051;-76
2022/01/09 12:15:08;;;;;;;27.17;10.43;;;7.70;99.90;;;;;;5094206;28;20412;-76
2022/01/09 12:17:36;;;;;;;32.80;10.77;;;7.80;99.90;;;;;;5090995;28;20033;-75
2022/01/09 12:20:16;;;;;;;33.90;9.48;;;7.90;99.90;;;;;;5093736;28;20032;-76
2022/01/09 12:22:49;;;;;;;35.63;9.43;;;7.80;99.90;;;;;;5111389;28;20015;-76
2022/01/09 12:25:24;;;;;;;23.85;8.70;;;7.90;99.90;;;;;;5106849;28;20090;-75
2022/01/09 12:27:54;;;;;;;18.17;6.60;;;7.80;99.90;;;;;;5082340;28;20652;-76
2022/01/09 12:30:44;;;;;;;29.80;7.65;;;7.70;99.90;;;;;;5082221;28;20081;-76
2022/01/09 12:33:22;;;;;;;21.75;7.45;;;7.60;99.90;;;;;;5086843;28;20024;-75
2022/01/09 12:36:08;;;;;;;31.77;9.25;;;7.60;99.90;;;;;;5070846;28;20064;-75
2022/01/09 12:38:47;;;;;;;25.55;8.05;;;7.70;99.90;;;;;;5083469;28;20107;-76
2022/01/09 12:41:21;;;;;;;20.42;6.85;;;7.70;99.90;;;;;;5081630;28;20430;-75
2022/01/09 12:43:47;;;;;;;28.15;7.78;;;7.80;99.90;;;;;;5084333;28;20115;-76
2022/01/09 12:46:19;;;;;;;21.40;7.68;;;7.80;99.90;;;;;;5080033;28;20020;-75
2022/01/09 12:49:15;;;;;;;28.17;6.82;;;7.80;99.90;;;;;;5090177;28;20039;-77
2022/01/09 12:51:47;;;;;;;29.52;8.07;;;7.70;99.90;;;;;;5054879;28;20032;-76